sensor_id;sensor_type;location;lat;lon;timestamp;temperature;humidity
67529;DHT22;54366;51.980;5.856;2023-02-22T00:01:42;9.10;83.00
67529;DHT22;54366;51.980;5.856;2023-02-22T00:04:41;9.00;83.10
67529;DHT22;54366;51.980;5.856;2023-02-22T00:07:14;9.00;83.10
67529;DHT22;54366;51.980;5.856;2023-02-22T00:09:47;9.00;82.70
67529;DHT22;54366;51.980;5.856;2023-02-22T00:12:14;8.90;83.10
67529;DHT22;54366;51.980;5.856;2023-02-22T00:14:47;8.90;83.30
67529;DHT22;54366;51.980;5.856;2023-02-22T00:17:13;8.90;83.10
67529;DHT22;54366;51.980;5.856;2023-02-22T00:19:48;8.90;83.30
67529;DHT22;54366;51.980;5.856;2023-02-22T00:22:20;8.90;83.50
67529;DHT22;54366;51.980;5.856;2023-02-22T00:24:53;8.90;83.60
67529;DHT22;54366;51.980;5.856;2023-02-22T00:27:28;8.90;83.80
67529;DHT22;54366;51.980;5.856;2023-02-22T00:29:54;8.90;83.70
67529;DHT22;54366;51.980;5.856;2023-02-22T00:32:27;8.90;83.60
67529;DHT22;54366;51.980;5.856;2023-02-22T00:35:00;8.90;83.70
67529;DHT22;54366;51.980;5.856;2023-02-22T00:37:36;8.90;83.80
67529;DHT22;54366;51.980;5.856;2023-02-22T00:40:09;8.90;83.60
67529;DHT22;54366;51.980;5.856;2023-02-22T00:42:43;8.90;83.70
67529;DHT22;54366;51.980;5.856;2023-02-22T00:45:09;8.90;83.40
67529;DHT22;54366;51.980;5.856;2023-02-22T00:47:42;8.90;83.30
67529;DHT22;54366;51.980;5.856;2023-02-22T00:50:16;8.90;83.20
67529;DHT22;54366;51.980;5.856;2023-02-22T00:52:50;8.90;83.10
67529;DHT22;54366;51.980;5.856;2023-02-22T00:55:26;8.80;83.30
67529;DHT22;54366;51.980;5.856;2023-02-22T00:57:59;8.80;83.40
67529;DHT22;54366;51.980;5.856;2023-02-22T01:00:46;8.80;83.10
67529;DHT22;54366;51.980;5.856;2023-02-22T01:03:19;8.80;83.10
67529;DHT22;54366;51.980;5.856;2023-02-22T01:05:46;8.80;83.10
67529;DHT22;54366;51.980;5.856;2023-02-22T01:08:18;8.80;83.30
67529;DHT22;54366;51.980;5.856;2023-02-22T01:10:51;8.70;83.40
67529;DHT22;54366;51.980;5.856;2023-02-22T01:13:25;8.80;83.40
67529;DHT22;54366;51.980;5.856;2023-02-22T01:15:59;8.70;83.40
67529;DHT22;54366;51.980;5.856;2023-02-22T01:18:25;8.80;83.50
67529;DHT22;54366;51.980;5.856;2023-02-22T01:20:59;8.70;83.60
67529;DHT22;54366;51.980;5.856;2023-02-22T01:23:34;8.70;83.60
67529;DHT22;54366;51.980;5.856;2023-02-22T01:26:06;8.70;83.50
67529;DHT22;54366;51.980;5.856;2023-02-22T01:28:39;8.70;83.50
67529;DHT22;54366;51.980;5.856;2023-02-22T01:31:12;8.70;83.60
67529;DHT22;54366;51.980;5.856;2023-02-22T01:33:45;8.70;83.70
67529;DHT22;54366;51.980;5.856;2023-02-22T01:36:13;8.70;83.70
67529;DHT22;54366;51.980;5.856;2023-02-22T01:38:46;8.70;83.70
67529;DHT22;54366;51.980;5.856;2023-02-22T01:41:12;8.70;83.40
67529;DHT22;54366;51.980;5.856;2023-02-22T01:43:47;8.70;83.40
67529;DHT22;54366;51.980;5.856;2023-02-22T01:46:25;8.60;83.30
67529;DHT22;54366;51.980;5.856;2023-02-22T01:49:03;8.70;83.60
67529;DHT22;54366;51.980;5.856;2023-02-22T01:51:44;8.60;83.60
67529;DHT22;54366;51.980;5.856;2023-02-22T01:54:38;8.70;83.70
67529;DHT22;54366;51.980;5.856;2023-02-22T01:57:22;8.60;83.80
67529;DHT22;54366;51.980;5.856;2023-02-22T02:00:04;8.60;83.40
67529;DHT22;54366;51.980;5.856;2023-02-22T02:02:49;8.60;83.50
67529;DHT22;54366;51.980;5.856;2023-02-22T02:05:26;8.60;83.50
67529;DHT22;54366;51.980;5.856;2023-02-22T02:08:07;8.60;83.40
67529;DHT22;54366;51.980;5.856;2023-02-22T02:10:44;8.60;83.60
67529;DHT22;54366;51.980;5.856;2023-02-22T02:13:19;8.60;83.50
67529;DHT22;54366;51.980;5.856;2023-02-22T02:15:56;8.50;83.40
67529;DHT22;54366;51.980;5.856;2023-02-22T02:18:29;8.50;83.30
67529;DHT22;54366;51.980;5.856;2023-02-22T02:27:24;8.40;82.80
67529;DHT22;54366;51.980;5.856;2023-02-22T02:30:30;8.40;83.00
67529;DHT22;54366;51.980;5.856;2023-02-22T02:37:01;8.40;83.30
67529;DHT22;54366;51.980;5.856;2023-02-22T02:46:36;8.30;83.10
67529;DHT22;54366;51.980;5.856;2023-02-22T02:49:15;8.30;83.00
67529;DHT22;54366;51.980;5.856;2023-02-22T02:51:52;8.20;83.60
67529;DHT22;54366;51.980;5.856;2023-02-22T02:54:27;8.20;83.20
67529;DHT22;54366;51.980;5.856;2023-02-22T02:57:01;8.20;83.00
67529;DHT22;54366;51.980;5.856;2023-02-22T02:59:42;8.20;83.00
67529;DHT22;54366;51.980;5.856;2023-02-22T03:12:04;8.20;83.20
67529;DHT22;54366;51.980;5.856;2023-02-22T03:14:57;8.20;83.10
67529;DHT22;54366;51.980;5.856;2023-02-22T03:20:42;8.10;83.20
67529;DHT22;54366;51.980;5.856;2023-02-22T03:26:44;8.10;83.40
67529;DHT22;54366;51.980;5.856;2023-02-22T03:29:20;8.20;83.40
67529;DHT22;54366;51.980;5.856;2023-02-22T03:31:57;8.20;83.30
67529;DHT22;54366;51.980;5.856;2023-02-22T03:35:00;8.10;83.40
67529;DHT22;54366;51.980;5.856;2023-02-22T03:37:43;8.10;83.40
67529;DHT22;54366;51.980;5.856;2023-02-22T03:40:22;8.20;83.60
67529;DHT22;54366;51.980;5.856;2023-02-22T03:43:03;8.10;83.40
67529;DHT22;54366;51.980;5.856;2023-02-22T03:45:42;8.10;83.50
67529;DHT22;54366;51.980;5.856;2023-02-22T03:48:40;8.10;83.50
67529;DHT22;54366;51.980;5.856;2023-02-22T03:51:16;8.10;83.60
67529;DHT22;54366;51.980;5.856;2023-02-22T03:53:45;8.10;83.50
67529;DHT22;54366;51.980;5.856;2023-02-22T03:56:37;8.10;83.50
67529;DHT22;54366;51.980;5.856;2023-02-22T03:59:11;8.10;83.50
67529;DHT22;54366;51.980;5.856;2023-02-22T04:01:52;8.10;83.50
67529;DHT22;54366;51.980;5.856;2023-02-22T04:04:25;8.10;83.60
67529;DHT22;54366;51.980;5.856;2023-02-22T04:06:59;8.10;83.60
67529;DHT22;54366;51.980;5.856;2023-02-22T04:09:32;8.10;83.70
67529;DHT22;54366;51.980;5.856;2023-02-22T04:12:05;8.10;83.70
67529;DHT22;54366;51.980;5.856;2023-02-22T04:14:52;8.10;83.60
67529;DHT22;54366;51.980;5.856;2023-02-22T04:17:27;8.00;83.30
67529;DHT22;54366;51.980;5.856;2023-02-22T04:19:53;8.00;83.30
67529;DHT22;54366;51.980;5.856;2023-02-22T04:22:31;8.00;83.20
67529;DHT22;54366;51.980;5.856;2023-02-22T04:25:05;7.90;83.10
67529;DHT22;54366;51.980;5.856;2023-02-22T04:27:31;8.00;83.20
67529;DHT22;54366;51.980;5.856;2023-02-22T04:30:05;7.90;83.30
67529;DHT22;54366;51.980;5.856;2023-02-22T04:32:39;7.90;83.40
67529;DHT22;54366;51.980;5.856;2023-02-22T04:35:14;7.90;83.50
67529;DHT22;54366;51.980;5.856;2023-02-22T04:37:48;7.80;83.40
67529;DHT22;54366;51.980;5.856;2023-02-22T04:40:21;7.90;83.70
67529;DHT22;54366;51.980;5.856;2023-02-22T04:42:54;7.80;83.50
67529;DHT22;54366;51.980;5.856;2023-02-22T04:45:27;7.80;83.60
67529;DHT22;54366;51.980;5.856;2023-02-22T04:47:54;7.80;83.50
67529;DHT22;54366;51.980;5.856;2023-02-22T04:50:27;7.80;83.40
67529;DHT22;54366;51.980;5.856;2023-02-22T04:53:00;7.70;83.40
67529;DHT22;54366;51.980;5.856;2023-02-22T04:55:34;7.70;83.30
67529;DHT22;54366;51.980;5.856;2023-02-22T04:58:07;7.70;83.40
67529;DHT22;54366;51.980;5.856;2023-02-22T05:04:05;7.60;83.90
67529;DHT22;54366;51.980;5.856;2023-02-22T05:06:38;7.60;83.80
67529;DHT22;54366;51.980;5.856;2023-02-22T05:09:11;7.60;83.80
67529;DHT22;54366;51.980;5.856;2023-02-22T05:11:44;7.50;84.40
67529;DHT22;54366;51.980;5.856;2023-02-22T05:14:17;7.50;84.00
67529;DHT22;54366;51.980;5.856;2023-02-22T05:16:43;7.50;84.60
67529;DHT22;54366;51.980;5.856;2023-02-22T05:19:16;7.50;84.20
67529;DHT22;54366;51.980;5.856;2023-02-22T05:21:49;7.50;84.30
67529;DHT22;54366;51.980;5.856;2023-02-22T05:24:22;7.50;84.30
67529;DHT22;54366;51.980;5.856;2023-02-22T05:26:55;7.50;84.30
67529;DHT22;54366;51.980;5.856;2023-02-22T05:29:28;7.50;84.40
67529;DHT22;54366;51.980;5.856;2023-02-22T05:32:00;7.50;84.40
67529;DHT22;54366;51.980;5.856;2023-02-22T05:34:33;7.40;84.40
67529;DHT22;54366;51.980;5.856;2023-02-22T05:37:07;7.50;84.40
67529;DHT22;54366;51.980;5.856;2023-02-22T05:39:33;7.40;84.20
67529;DHT22;54366;51.980;5.856;2023-02-22T05:42:06;7.50;84.30
67529;DHT22;54366;51.980;5.856;2023-02-22T05:44:38;7.40;84.30
67529;DHT22;54366;51.980;5.856;2023-02-22T05:47:12;7.40;84.40
67529;DHT22;54366;51.980;5.856;2023-02-22T05:49:44;7.40;84.50
67529;DHT22;54366;51.980;5.856;2023-02-22T05:52:18;7.40;84.60
67529;DHT22;54366;51.980;5.856;2023-02-22T05:54:51;7.40;84.70
67529;DHT22;54366;51.980;5.856;2023-02-22T05:57:24;7.40;84.80
67529;DHT22;54366;51.980;5.856;2023-02-22T05:59:57;7.40;84.90
67529;DHT22;54366;51.980;5.856;2023-02-22T06:02:38;7.40;84.80
67529;DHT22;54366;51.980;5.856;2023-02-22T06:05:19;7.40;84.90
67529;DHT22;54366;51.980;5.856;2023-02-22T06:07:52;7.40;84.80
67529;DHT22;54366;51.980;5.856;2023-02-22T06:10:18;7.40;84.90
67529;DHT22;54366;51.980;5.856;2023-02-22T06:12:52;7.30;85.00
67529;DHT22;54366;51.980;5.856;2023-02-22T06:15:26;7.40;85.30
67529;DHT22;54366;51.980;5.856;2023-02-22T06:18:00;7.30;85.50
67529;DHT22;54366;51.980;5.856;2023-02-22T06:20:34;7.40;85.70
67529;DHT22;54366;51.980;5.856;2023-02-22T06:23:07;7.30;85.70
67529;DHT22;54366;51.980;5.856;2023-02-22T06:25:40;7.30;85.70
67529;DHT22;54366;51.980;5.856;2023-02-22T06:28:13;7.30;85.80
67529;DHT22;54366;51.980;5.856;2023-02-22T06:30:39;7.30;85.90
67529;DHT22;54366;51.980;5.856;2023-02-22T06:33:14;7.30;86.10
67529;DHT22;54366;51.980;5.856;2023-02-22T06:35:47;7.20;86.40
67529;DHT22;54366;51.980;5.856;2023-02-22T06:38:20;7.20;86.30
67529;DHT22;54366;51.980;5.856;2023-02-22T06:40:54;7.30;86.50
67529;DHT22;54366;51.980;5.856;2023-02-22T06:43:27;7.20;86.60
67529;DHT22;54366;51.980;5.856;2023-02-22T06:46:00;7.20;86.70
67529;DHT22;54366;51.980;5.856;2023-02-22T06:48:33;7.20;86.70
67529;DHT22;54366;51.980;5.856;2023-02-22T06:51:08;7.20;86.80
67529;DHT22;54366;51.980;5.856;2023-02-22T06:53:41;7.20;86.70
67529;DHT22;54366;51.980;5.856;2023-02-22T06:56:13;7.20;86.80
67529;DHT22;54366;51.980;5.856;2023-02-22T06:58:47;7.20;86.80
67529;DHT22;54366;51.980;5.856;2023-02-22T07:01:21;7.30;86.90
67529;DHT22;54366;51.980;5.856;2023-02-22T07:04:00;7.20;86.90
67529;DHT22;54366;51.980;5.856;2023-02-22T07:06:32;7.20;87.00
67529;DHT22;54366;51.980;5.856;2023-02-22T07:09:06;7.20;87.00
67529;DHT22;54366;51.980;5.856;2023-02-22T07:11:39;7.30;87.00
67529;DHT22;54366;51.980;5.856;2023-02-22T07:14:11;7.30;86.90
67529;DHT22;54366;51.980;5.856;2023-02-22T07:16:45;7.30;86.90
67529;DHT22;54366;51.980;5.856;2023-02-22T07:19:11;7.30;87.00
67529;DHT22;54366;51.980;5.856;2023-02-22T07:21:44;7.30;87.10
67529;DHT22;54366;51.980;5.856;2023-02-22T07:24:19;7.30;87.00
67529;DHT22;54366;51.980;5.856;2023-02-22T07:26:52;7.30;87.80
67529;DHT22;54366;51.980;5.856;2023-02-22T07:29:26;7.30;87.20
67529;DHT22;54366;51.980;5.856;2023-02-22T07:31:59;7.30;87.40
67529;DHT22;54366;51.980;5.856;2023-02-22T07:34:32;7.30;87.90
67529;DHT22;54366;51.980;5.856;2023-02-22T07:37:05;7.30;87.50
67529;DHT22;54366;51.980;5.856;2023-02-22T07:39:38;7.30;87.40
67529;DHT22;54366;51.980;5.856;2023-02-22T07:42:14;7.30;87.50
67529;DHT22;54366;51.980;5.856;2023-02-22T07:44:47;7.40;87.60
67529;DHT22;54366;51.980;5.856;2023-02-22T07:47:20;7.40;87.70
67529;DHT22;54366;51.980;5.856;2023-02-22T07:49:53;7.40;87.80
67529;DHT22;54366;51.980;5.856;2023-02-22T07:52:26;7.40;87.60
67529;DHT22;54366;51.980;5.856;2023-02-22T07:54:52;7.50;87.60
67529;DHT22;54366;51.980;5.856;2023-02-22T07:57:25;7.50;87.60
67529;DHT22;54366;51.980;5.856;2023-02-22T07:59:58;7.50;87.60
67529;DHT22;54366;51.980;5.856;2023-02-22T08:02:25;7.50;87.70
67529;DHT22;54366;51.980;5.856;2023-02-22T08:04:58;7.50;87.80
67529;DHT22;54366;51.980;5.856;2023-02-22T08:07:38;7.50;87.90
67529;DHT22;54366;51.980;5.856;2023-02-22T08:10:12;7.50;87.90
67529;DHT22;54366;51.980;5.856;2023-02-22T08:12:39;7.60;88.10
67529;DHT22;54366;51.980;5.856;2023-02-22T08:15:27;7.60;88.00
67529;DHT22;54366;51.980;5.856;2023-02-22T08:18:03;7.60;87.90
67529;DHT22;54366;51.980;5.856;2023-02-22T08:20:30;7.70;87.90
67529;DHT22;54366;51.980;5.856;2023-02-22T08:23:04;7.70;87.90
67529;DHT22;54366;51.980;5.856;2023-02-22T08:25:38;7.80;87.80
67529;DHT22;54366;51.980;5.856;2023-02-22T08:28:13;7.80;87.70
67529;DHT22;54366;51.980;5.856;2023-02-22T08:30:47;7.80;87.80
67529;DHT22;54366;51.980;5.856;2023-02-22T08:33:34;7.80;87.70
67529;DHT22;54366;51.980;5.856;2023-02-22T08:36:07;7.80;87.70
67529;DHT22;54366;51.980;5.856;2023-02-22T08:38:47;7.80;87.60
67529;DHT22;54366;51.980;5.856;2023-02-22T08:41:13;7.80;87.70
67529;DHT22;54366;51.980;5.856;2023-02-22T08:43:46;7.90;87.70
67529;DHT22;54366;51.980;5.856;2023-02-22T08:46:19;7.90;87.70
67529;DHT22;54366;51.980;5.856;2023-02-22T08:48:52;7.90;87.70
67529;DHT22;54366;51.980;5.856;2023-02-22T08:51:25;7.90;87.70
67529;DHT22;54366;51.980;5.856;2023-02-22T08:53:58;7.90;87.60
67529;DHT22;54366;51.980;5.856;2023-02-22T08:56:31;7.90;87.60
67529;DHT22;54366;51.980;5.856;2023-02-22T08:59:05;8.00;87.70
67529;DHT22;54366;51.980;5.856;2023-02-22T09:01:38;8.00;87.70
67529;DHT22;54366;51.980;5.856;2023-02-22T09:04:17;8.00;87.70
67529;DHT22;54366;51.980;5.856;2023-02-22T09:06:50;8.00;87.80
67529;DHT22;54366;51.980;5.856;2023-02-22T09:09:23;8.00;87.80
67529;DHT22;54366;51.980;5.856;2023-02-22T09:11:50;8.10;87.90
67529;DHT22;54366;51.980;5.856;2023-02-22T09:14:23;8.10;87.70
67529;DHT22;54366;51.980;5.856;2023-02-22T09:16:49;8.10;87.50
67529;DHT22;54366;51.980;5.856;2023-02-22T09:19:22;8.20;87.50
67529;DHT22;54366;51.980;5.856;2023-02-22T09:21:56;8.20;87.40
67529;DHT22;54366;51.980;5.856;2023-02-22T09:24:29;8.20;87.30
67529;DHT22;54366;51.980;5.856;2023-02-22T09:27:02;8.30;87.30
67529;DHT22;54366;51.980;5.856;2023-02-22T09:29:36;8.40;87.20
67529;DHT22;54366;51.980;5.856;2023-02-22T09:32:02;8.40;87.10
67529;DHT22;54366;51.980;5.856;2023-02-22T09:34:36;8.50;87.10
67529;DHT22;54366;51.980;5.856;2023-02-22T09:37:09;8.50;87.00
67529;DHT22;54366;51.980;5.856;2023-02-22T09:39:42;8.60;87.00
67529;DHT22;54366;51.980;5.856;2023-02-22T09:42:30;8.60;86.90
67529;DHT22;54366;51.980;5.856;2023-02-22T09:45:13;8.70;86.90
67529;DHT22;54366;51.980;5.856;2023-02-22T09:47:51;8.70;86.80
67529;DHT22;54366;51.980;5.856;2023-02-22T09:50:39;8.90;86.60
67529;DHT22;54366;51.980;5.856;2023-02-22T09:53:46;8.90;86.20
67529;DHT22;54366;51.980;5.856;2023-02-22T09:56:21;9.00;85.70
67529;DHT22;54366;51.980;5.856;2023-02-22T09:59:00;9.00;85.40
67529;DHT22;54366;51.980;5.856;2023-02-22T10:01:45;9.10;85.50
67529;DHT22;54366;51.980;5.856;2023-02-22T10:04:28;9.10;85.60
67529;DHT22;54366;51.980;5.856;2023-02-22T10:07:40;9.20;85.30
67529;DHT22;54366;51.980;5.856;2023-02-22T10:10:21;9.20;85.10
67529;DHT22;54366;51.980;5.856;2023-02-22T10:13:28;9.30;85.20
67529;DHT22;54366;51.980;5.856;2023-02-22T10:16:30;9.30;85.00
67529;DHT22;54366;51.980;5.856;2023-02-22T10:19:30;9.30;85.00
67529;DHT22;54366;51.980;5.856;2023-02-22T10:25:16;9.40;84.10
67529;DHT22;54366;51.980;5.856;2023-02-22T10:28:08;9.50;84.50
67529;DHT22;54366;51.980;5.856;2023-02-22T10:30:51;9.50;84.40
67529;DHT22;54366;51.980;5.856;2023-02-22T10:33:35;9.60;84.40
67529;DHT22;54366;51.980;5.856;2023-02-22T10:36:16;9.70;84.00
67529;DHT22;54366;51.980;5.856;2023-02-22T10:39:19;9.80;83.90
67529;DHT22;54366;51.980;5.856;2023-02-22T10:42:01;9.90;83.70
67529;DHT22;54366;51.980;5.856;2023-02-22T10:44:37;9.90;82.10
67529;DHT22;54366;51.980;5.856;2023-02-22T10:47:13;9.90;82.50
67529;DHT22;54366;51.980;5.856;2023-02-22T10:49:50;10.00;82.70
67529;DHT22;54366;51.980;5.856;2023-02-22T10:52:32;10.00;82.40
67529;DHT22;54366;51.980;5.856;2023-02-22T10:55:13;10.10;82.10
67529;DHT22;54366;51.980;5.856;2023-02-22T10:57:49;10.20;82.90
67529;DHT22;54366;51.980;5.856;2023-02-22T11:00:34;10.30;81.90
67529;DHT22;54366;51.980;5.856;2023-02-22T11:03:20;10.40;81.90
67529;DHT22;54366;51.980;5.856;2023-02-22T11:05:54;10.40;81.50
67529;DHT22;54366;51.980;5.856;2023-02-22T11:08:28;10.50;81.40
67529;DHT22;54366;51.980;5.856;2023-02-22T11:11:24;10.60;81.10
67529;DHT22;54366;51.980;5.856;2023-02-22T11:13:57;10.70;81.10
67529;DHT22;54366;51.980;5.856;2023-02-22T11:16:35;10.80;81.20
67529;DHT22;54366;51.980;5.856;2023-02-22T11:19:45;10.90;81.00
67529;DHT22;54366;51.980;5.856;2023-02-22T11:22:45;11.00;80.20
67529;DHT22;54366;51.980;5.856;2023-02-22T11:25:20;11.10;79.00
67529;DHT22;54366;51.980;5.856;2023-02-22T11:27:54;11.10;79.80
67529;DHT22;54366;51.980;5.856;2023-02-22T11:30:29;11.20;79.70
67529;DHT22;54366;51.980;5.856;2023-02-22T11:33:21;11.30;79.80
67529;DHT22;54366;51.980;5.856;2023-02-22T11:35:57;11.50;78.10
67529;DHT22;54366;51.980;5.856;2023-02-22T11:38:36;11.40;77.10
67529;DHT22;54366;51.980;5.856;2023-02-22T11:41:20;11.50;78.20
67529;DHT22;54366;51.980;5.856;2023-02-22T11:44:25;11.60;77.80
67529;DHT22;54366;51.980;5.856;2023-02-22T11:47:01;11.60;77.20
67529;DHT22;54366;51.980;5.856;2023-02-22T11:49:41;11.60;77.70
67529;DHT22;54366;51.980;5.856;2023-02-22T11:52:35;11.60;77.30
67529;DHT22;54366;51.980;5.856;2023-02-22T11:55:42;11.60;77.10
67529;DHT22;54366;51.980;5.856;2023-02-22T11:58:36;11.60;77.60
67529;DHT22;54366;51.980;5.856;2023-02-22T12:04:40;11.70;77.00
67529;DHT22;54366;51.980;5.856;2023-02-22T12:11:43;11.70;76.20
67529;DHT22;54366;51.980;5.856;2023-02-22T12:19:40;11.80;75.80
67529;DHT22;54366;51.980;5.856;2023-02-22T12:22:25;11.90;76.00
67529;DHT22;54366;51.980;5.856;2023-02-22T12:25:06;12.00;75.60
67529;DHT22;54366;51.980;5.856;2023-02-22T12:27:56;12.00;75.30
67529;DHT22;54366;51.980;5.856;2023-02-22T12:30:33;12.10;75.40
67529;DHT22;54366;51.980;5.856;2023-02-22T12:33:15;12.10;75.00
67529;DHT22;54366;51.980;5.856;2023-02-22T12:35:55;12.20;75.50
67529;DHT22;54366;51.980;5.856;2023-02-22T12:38:36;12.20;74.90
67529;DHT22;54366;51.980;5.856;2023-02-22T12:44:29;12.30;73.70
67529;DHT22;54366;51.980;5.856;2023-02-22T12:47:05;12.30;73.80
67529;DHT22;54366;51.980;5.856;2023-02-22T12:49:46;12.30;74.20
67529;DHT22;54366;51.980;5.856;2023-02-22T12:53:01;12.30;74.20
67529;DHT22;54366;51.980;5.856;2023-02-22T12:59:21;12.30;73.70
67529;DHT22;54366;51.980;5.856;2023-02-22T13:02:36;12.30;74.10
67529;DHT22;54366;51.980;5.856;2023-02-22T13:05:17;12.30;74.40
67529;DHT22;54366;51.980;5.856;2023-02-22T13:11:41;12.40;74.50
67529;DHT22;54366;51.980;5.856;2023-02-22T13:14:37;12.40;74.60
67529;DHT22;54366;51.980;5.856;2023-02-22T13:17:46;12.30;74.90
67529;DHT22;54366;51.980;5.856;2023-02-22T13:20:40;12.30;74.90
67529;DHT22;54366;51.980;5.856;2023-02-22T13:23:57;12.40;75.10
67529;DHT22;54366;51.980;5.856;2023-02-22T13:26:58;12.40;75.40
67529;DHT22;54366;51.980;5.856;2023-02-22T13:29:45;12.50;75.20
67529;DHT22;54366;51.980;5.856;2023-02-22T13:32:46;12.40;75.00
67529;DHT22;54366;51.980;5.856;2023-02-22T13:35:51;12.40;74.80
67529;DHT22;54366;51.980;5.856;2023-02-22T13:39:12;12.40;75.20
67529;DHT22;54366;51.980;5.856;2023-02-22T13:52:26;12.40;75.00
67529;DHT22;54366;51.980;5.856;2023-02-22T13:54:50;12.40;75.20
67529;DHT22;54366;51.980;5.856;2023-02-22T13:57:40;12.40;74.90
67529;DHT22;54366;51.980;5.856;2023-02-22T14:00:23;12.40;75.00
67529;DHT22;54366;51.980;5.856;2023-02-22T14:03:29;12.30;74.50
67529;DHT22;54366;51.980;5.856;2023-02-22T14:06:37;12.40;74.40
67529;DHT22;54366;51.980;5.856;2023-02-22T14:09:15;12.40;74.20
67529;DHT22;54366;51.980;5.856;2023-02-22T14:11:51;12.40;74.40
67529;DHT22;54366;51.980;5.856;2023-02-22T14:14:28;12.40;74.50
67529;DHT22;54366;51.980;5.856;2023-02-22T14:17:22;12.40;74.80
67529;DHT22;54366;51.980;5.856;2023-02-22T14:20:00;12.40;74.90
67529;DHT22;54366;51.980;5.856;2023-02-22T14:22:34;12.40;75.40
67529;DHT22;54366;51.980;5.856;2023-02-22T14:25:28;12.40;75.60
67529;DHT22;54366;51.980;5.856;2023-02-22T14:28:04;12.40;75.70
67529;DHT22;54366;51.980;5.856;2023-02-22T14:30:38;12.40;76.10
67529;DHT22;54366;51.980;5.856;2023-02-22T14:36:17;12.30;76.60
67529;DHT22;54366;51.980;5.856;2023-02-22T14:38:50;12.30;77.10
67529;DHT22;54366;51.980;5.856;2023-02-22T14:41:26;12.30;77.20
67529;DHT22;54366;51.980;5.856;2023-02-22T14:44:03;12.30;77.40
67529;DHT22;54366;51.980;5.856;2023-02-22T14:46:40;12.30;77.60
67529;DHT22;54366;51.980;5.856;2023-02-22T14:49:16;12.30;77.90
67529;DHT22;54366;51.980;5.856;2023-02-22T14:51:56;12.30;78.10
67529;DHT22;54366;51.980;5.856;2023-02-22T14:54:55;12.30;78.10
67529;DHT22;54366;51.980;5.856;2023-02-22T14:57:48;12.30;78.10
67529;DHT22;54366;51.980;5.856;2023-02-22T15:00:36;12.30;78.00
67529;DHT22;54366;51.980;5.856;2023-02-22T15:06:20;12.30;78.00
67529;DHT22;54366;51.980;5.856;2023-02-22T15:09:26;12.30;78.10
67529;DHT22;54366;51.980;5.856;2023-02-22T15:12:25;12.30;78.00
67529;DHT22;54366;51.980;5.856;2023-02-22T15:15:19;12.20;78.10
67529;DHT22;54366;51.980;5.856;2023-02-22T15:17:55;12.20;78.40
67529;DHT22;54366;51.980;5.856;2023-02-22T15:20:29;12.20;78.60
67529;DHT22;54366;51.980;5.856;2023-02-22T15:23:02;12.20;78.70
67529;DHT22;54366;51.980;5.856;2023-02-22T15:25:29;12.20;78.70
67529;DHT22;54366;51.980;5.856;2023-02-22T15:28:04;12.20;78.70
67529;DHT22;54366;51.980;5.856;2023-02-22T15:30:41;12.10;78.70
67529;DHT22;54366;51.980;5.856;2023-02-22T15:33:16;12.10;78.90
67529;DHT22;54366;51.980;5.856;2023-02-22T15:35:54;12.10;78.90
67529;DHT22;54366;51.980;5.856;2023-02-22T15:38:29;12.10;79.00
67529;DHT22;54366;51.980;5.856;2023-02-22T15:41:04;12.00;79.00
67529;DHT22;54366;51.980;5.856;2023-02-22T15:43:37;12.00;79.00
67529;DHT22;54366;51.980;5.856;2023-02-22T15:46:11;12.00;79.10
67529;DHT22;54366;51.980;5.856;2023-02-22T15:49:03;11.90;79.10
67529;DHT22;54366;51.980;5.856;2023-02-22T15:51:38;11.90;79.20
67529;DHT22;54366;51.980;5.856;2023-02-22T15:54:12;11.90;79.10
67529;DHT22;54366;51.980;5.856;2023-02-22T15:56:47;11.80;79.10
67529;DHT22;54366;51.980;5.856;2023-02-22T15:59:23;11.80;79.10
67529;DHT22;54366;51.980;5.856;2023-02-22T16:02:01;11.80;79.10
67529;DHT22;54366;51.980;5.856;2023-02-22T16:04:34;11.80;79.20
67529;DHT22;54366;51.980;5.856;2023-02-22T16:07:15;11.80;79.20
67529;DHT22;54366;51.980;5.856;2023-02-22T16:09:56;11.80;79.20
67529;DHT22;54366;51.980;5.856;2023-02-22T16:12:29;11.80;79.20
67529;DHT22;54366;51.980;5.856;2023-02-22T16:15:02;11.70;79.20
67529;DHT22;54366;51.980;5.856;2023-02-22T16:17:46;11.70;79.30
67529;DHT22;54366;51.980;5.856;2023-02-22T16:20:37;11.70;79.40
67529;DHT22;54366;51.980;5.856;2023-02-22T16:23:24;11.70;79.50
67529;DHT22;54366;51.980;5.856;2023-02-22T16:26:14;11.70;79.70
67529;DHT22;54366;51.980;5.856;2023-02-22T16:29:03;11.70;79.80
67529;DHT22;54366;51.980;5.856;2023-02-22T16:31:38;11.60;79.90
67529;DHT22;54366;51.980;5.856;2023-02-22T16:34:13;11.60;80.00
67529;DHT22;54366;51.980;5.856;2023-02-22T16:36:47;11.60;80.00
67529;DHT22;54366;51.980;5.856;2023-02-22T16:39:29;11.60;80.00
67529;DHT22;54366;51.980;5.856;2023-02-22T16:42:03;11.60;80.00
67529;DHT22;54366;51.980;5.856;2023-02-22T16:44:37;11.60;80.00
67529;DHT22;54366;51.980;5.856;2023-02-22T16:47:11;11.60;79.90
67529;DHT22;54366;51.980;5.856;2023-02-22T16:49:37;11.50;79.90
67529;DHT22;54366;51.980;5.856;2023-02-22T16:52:10;11.50;80.00
67529;DHT22;54366;51.980;5.856;2023-02-22T16:54:44;11.50;80.00
67529;DHT22;54366;51.980;5.856;2023-02-22T16:57:20;11.50;80.00
67529;DHT22;54366;51.980;5.856;2023-02-22T16:59:54;11.40;80.00
67529;DHT22;54366;51.980;5.856;2023-02-22T17:02:27;11.40;79.90
67529;DHT22;54366;51.980;5.856;2023-02-22T17:05:00;11.40;80.00
67529;DHT22;54366;51.980;5.856;2023-02-22T17:07:39;11.30;80.00
67529;DHT22;54366;51.980;5.856;2023-02-22T17:10:16;11.30;80.00
67529;DHT22;54366;51.980;5.856;2023-02-22T17:12:49;11.30;80.10
67529;DHT22;54366;51.980;5.856;2023-02-22T17:15:25;11.20;80.10
67529;DHT22;54366;51.980;5.856;2023-02-22T17:17:53;11.20;80.20
67529;DHT22;54366;51.980;5.856;2023-02-22T17:20:26;11.20;80.40
67529;DHT22;54366;51.980;5.856;2023-02-22T17:23:06;11.20;80.40
67529;DHT22;54366;51.980;5.856;2023-02-22T17:25:45;11.20;80.40
67529;DHT22;54366;51.980;5.856;2023-02-22T17:28:21;11.10;80.40
67529;DHT22;54366;51.980;5.856;2023-02-22T17:30:56;11.10;80.30
67529;DHT22;54366;51.980;5.856;2023-02-22T17:33:33;11.10;80.30
67529;DHT22;54366;51.980;5.856;2023-02-22T17:36:08;11.10;80.40
67529;DHT22;54366;51.980;5.856;2023-02-22T17:38:41;11.10;80.40
67529;DHT22;54366;51.980;5.856;2023-02-22T17:41:14;11.10;80.40
67529;DHT22;54366;51.980;5.856;2023-02-22T17:43:47;11.10;80.40
67529;DHT22;54366;51.980;5.856;2023-02-22T17:46:20;11.10;80.40
67529;DHT22;54366;51.980;5.856;2023-02-22T17:48:53;11.10;80.50
67529;DHT22;54366;51.980;5.856;2023-02-22T17:51:26;11.00;80.40
67529;DHT22;54366;51.980;5.856;2023-02-22T17:53:59;11.10;81.00
67529;DHT22;54366;51.980;5.856;2023-02-22T17:56:32;11.00;80.60
67529;DHT22;54366;51.980;5.856;2023-02-22T17:59:05;11.00;80.70
67529;DHT22;54366;51.980;5.856;2023-02-22T18:01:34;11.00;80.70
67529;DHT22;54366;51.980;5.856;2023-02-22T18:04:07;10.90;80.80
67529;DHT22;54366;51.980;5.856;2023-02-22T18:06:40;10.90;80.90
67529;DHT22;54366;51.980;5.856;2023-02-22T18:09:26;10.90;81.00